首页
METAR-TAF:

METAR-TAF

机场 :

Waseca Municipal Airport

Waseca, 明尼蘇達州, 美国

纬度: 44-04-24N, 经度: 093-33-11W, 海拔: 343米

当前天气观测

该预报发布于39分钟前的04:59 UTC
风速9节,风向西北
温度 -1°C
湿度 86%
气压 1015 hPa
能見度: 16.1公里
阴天层高于900英尺

METAR: KACQ 250459Z AUTO 31009KT 10SM OVC009 M01/M03 A2997 RMK AO2

时间: 23:38 (05:38 UTC)


TAF: 丢失

超过4000个机场的气象观测和天气预报(METAR&TAF报告)。

可查询的气象台以黄色和红色小点在地图上表示。

将鼠标移到小点上方,可查看气象台名称。

然后点击查看天气观测和预报。

如需切换地图:点击带黑十字的绿色按钮放大地图;点击带横线的绿色按钮缩小地图;或者点击绿色箭头查看邻近地区的地图。


METAR-TAF: